sensor_id;sensor_type;location;lat;lon;timestamp;temperature;humidity
62809;DHT22;48848;39.002;-94.584;2023-05-07T00:01:43;22.60;43.10
62809;DHT22;48848;39.002;-94.584;2023-05-07T00:04:09;22.60;42.60
62809;DHT22;48848;39.002;-94.584;2023-05-07T00:06:35;22.60;44.30
62809;DHT22;48848;39.002;-94.584;2023-05-07T00:09:01;22.80;48.10
62809;DHT22;48848;39.002;-94.584;2023-05-07T00:11:27;22.90;48.80
62809;DHT22;48848;39.002;-94.584;2023-05-07T00:13:53;23.10;48.00
62809;DHT22;48848;39.002;-94.584;2023-05-07T00:16:19;23.30;46.80
62809;DHT22;48848;39.002;-94.584;2023-05-07T00:18:45;23.40;46.50
62809;DHT22;48848;39.002;-94.584;2023-05-07T00:21:11;23.50;46.40
62809;DHT22;48848;39.002;-94.584;2023-05-07T00:23:37;23.50;45.20
62809;DHT22;48848;39.002;-94.584;2023-05-07T00:26:03;23.40;43.80
62809;DHT22;48848;39.002;-94.584;2023-05-07T00:28:29;23.30;43.20
62809;DHT22;48848;39.002;-94.584;2023-05-07T00:30:55;23.20;43.00
62809;DHT22;48848;39.002;-94.584;2023-05-07T00:33:21;23.10;42.90
62809;DHT22;48848;39.002;-94.584;2023-05-07T00:35:47;23.00;42.80
62809;DHT22;48848;39.002;-94.584;2023-05-07T00:38:13;23.00;43.10
62809;DHT22;48848;39.002;-94.584;2023-05-07T00:40:39;23.00;42.80
62809;DHT22;48848;39.002;-94.584;2023-05-07T00:43:05;22.90;42.60
62809;DHT22;48848;39.002;-94.584;2023-05-07T00:45:32;22.90;43.00
62809;DHT22;48848;39.002;-94.584;2023-05-07T00:47:59;22.90;42.70
62809;DHT22;48848;39.002;-94.584;2023-05-07T00:50:26;22.80;42.80
62809;DHT22;48848;39.002;-94.584;2023-05-07T00:52:53;22.80;42.40
62809;DHT22;48848;39.002;-94.584;2023-05-07T00:55:21;22.70;42.70
62809;DHT22;48848;39.002;-94.584;2023-05-07T00:57:47;22.70;42.80
62809;DHT22;48848;39.002;-94.584;2023-05-07T01:00:13;22.60;42.80
62809;DHT22;48848;39.002;-94.584;2023-05-07T01:02:39;22.70;42.10
62809;DHT22;48848;39.002;-94.584;2023-05-07T01:05:05;22.70;41.90
62809;DHT22;48848;39.002;-94.584;2023-05-07T01:07:32;22.60;42.20
62809;DHT22;48848;39.002;-94.584;2023-05-07T01:10:00;22.60;42.20
62809;DHT22;48848;39.002;-94.584;2023-05-07T01:12:28;22.60;42.40
62809;DHT22;48848;39.002;-94.584;2023-05-07T01:14:54;22.60;41.90
62809;DHT22;48848;39.002;-94.584;2023-05-07T01:17:20;22.50;42.50
62809;DHT22;48848;39.002;-94.584;2023-05-07T01:19:46;22.50;42.30
62809;DHT22;48848;39.002;-94.584;2023-05-07T01:22:13;22.50;42.10
62809;DHT22;48848;39.002;-94.584;2023-05-07T01:24:41;22.40;42.10
62809;DHT22;48848;39.002;-94.584;2023-05-07T01:27:07;22.40;42.00
62809;DHT22;48848;39.002;-94.584;2023-05-07T01:29:33;22.30;42.30
62809;DHT22;48848;39.002;-94.584;2023-05-07T01:32:00;22.30;42.10
62809;DHT22;48848;39.002;-94.584;2023-05-07T01:34:27;22.30;41.90
62809;DHT22;48848;39.002;-94.584;2023-05-07T01:36:54;22.40;41.90
62809;DHT22;48848;39.002;-94.584;2023-05-07T01:39:24;22.30;41.70
62809;DHT22;48848;39.002;-94.584;2023-05-07T01:41:51;22.30;42.10
62809;DHT22;48848;39.002;-94.584;2023-05-07T01:44:17;22.20;42.10
62809;DHT22;48848;39.002;-94.584;2023-05-07T01:46:44;22.20;41.90
62809;DHT22;48848;39.002;-94.584;2023-05-07T01:49:10;22.20;42.00
62809;DHT22;48848;39.002;-94.584;2023-05-07T01:51:36;22.20;41.70
62809;DHT22;48848;39.002;-94.584;2023-05-07T01:54:02;22.20;41.70
62809;DHT22;48848;39.002;-94.584;2023-05-07T01:56:28;22.10;41.80
62809;DHT22;48848;39.002;-94.584;2023-05-07T01:58:54;22.20;41.90
62809;DHT22;48848;39.002;-94.584;2023-05-07T02:01:20;22.10;41.60
62809;DHT22;48848;39.002;-94.584;2023-05-07T02:03:46;22.10;41.80
62809;DHT22;48848;39.002;-94.584;2023-05-07T02:06:12;22.00;42.10
62809;DHT22;48848;39.002;-94.584;2023-05-07T02:08:38;22.00;41.80
62809;DHT22;48848;39.002;-94.584;2023-05-07T02:11:04;22.10;41.90
62809;DHT22;48848;39.002;-94.584;2023-05-07T02:13:31;22.00;41.60
62809;DHT22;48848;39.002;-94.584;2023-05-07T02:15:57;22.00;42.00
62809;DHT22;48848;39.002;-94.584;2023-05-07T02:18:23;22.00;41.60
62809;DHT22;48848;39.002;-94.584;2023-05-07T02:20:49;22.00;41.70
62809;DHT22;48848;39.002;-94.584;2023-05-07T02:23:15;22.00;42.10
62809;DHT22;48848;39.002;-94.584;2023-05-07T02:25:40;21.90;41.60
62809;DHT22;48848;39.002;-94.584;2023-05-07T02:28:06;22.00;41.80
62809;DHT22;48848;39.002;-94.584;2023-05-07T02:30:32;21.80;41.60
62809;DHT22;48848;39.002;-94.584;2023-05-07T02:32:58;21.90;41.90
62809;DHT22;48848;39.002;-94.584;2023-05-07T02:35:24;21.80;41.90
62809;DHT22;48848;39.002;-94.584;2023-05-07T02:37:50;21.80;41.40
62809;DHT22;48848;39.002;-94.584;2023-05-07T02:40:16;21.90;41.60
62809;DHT22;48848;39.002;-94.584;2023-05-07T02:42:42;21.80;41.80
62809;DHT22;48848;39.002;-94.584;2023-05-07T02:45:08;21.80;41.60
62809;DHT22;48848;39.002;-94.584;2023-05-07T02:47:34;21.70;41.50
62809;DHT22;48848;39.002;-94.584;2023-05-07T02:50:00;21.80;41.20
62809;DHT22;48848;39.002;-94.584;2023-05-07T02:52:26;21.70;41.40
62809;DHT22;48848;39.002;-94.584;2023-05-07T02:54:52;21.70;41.70
62809;DHT22;48848;39.002;-94.584;2023-05-07T02:57:18;21.70;41.30
62809;DHT22;48848;39.002;-94.584;2023-05-07T02:59:43;21.70;41.50
62809;DHT22;48848;39.002;-94.584;2023-05-07T03:02:09;21.70;41.50
62809;DHT22;48848;39.002;-94.584;2023-05-07T03:04:35;21.60;41.40
62809;DHT22;48848;39.002;-94.584;2023-05-07T03:07:01;21.60;41.10
62809;DHT22;48848;39.002;-94.584;2023-05-07T03:09:27;21.60;41.30
62809;DHT22;48848;39.002;-94.584;2023-05-07T03:11:53;21.60;41.30
62809;DHT22;48848;39.002;-94.584;2023-05-07T03:14:19;21.60;41.20
62809;DHT22;48848;39.002;-94.584;2023-05-07T03:16:45;21.60;41.20
62809;DHT22;48848;39.002;-94.584;2023-05-07T03:19:11;21.60;41.10
62809;DHT22;48848;39.002;-94.584;2023-05-07T03:21:37;21.50;41.20
62809;DHT22;48848;39.002;-94.584;2023-05-07T03:24:03;21.50;41.00
62809;DHT22;48848;39.002;-94.584;2023-05-07T03:26:29;21.50;41.00
62809;DHT22;48848;39.002;-94.584;2023-05-07T03:28:55;21.50;41.10
62809;DHT22;48848;39.002;-94.584;2023-05-07T03:31:21;21.50;40.90
62809;DHT22;48848;39.002;-94.584;2023-05-07T03:33:53;21.50;41.20
62809;DHT22;48848;39.002;-94.584;2023-05-07T03:36:19;21.40;41.00
62809;DHT22;48848;39.002;-94.584;2023-05-07T03:38:46;21.40;41.30
62809;DHT22;48848;39.002;-94.584;2023-05-07T03:41:12;21.40;41.10
62809;DHT22;48848;39.002;-94.584;2023-05-07T03:43:38;21.40;41.00
62809;DHT22;48848;39.002;-94.584;2023-05-07T03:46:04;21.30;41.20
62809;DHT22;48848;39.002;-94.584;2023-05-07T03:48:30;21.40;41.10
62809;DHT22;48848;39.002;-94.584;2023-05-07T03:50:56;21.40;41.30
62809;DHT22;48848;39.002;-94.584;2023-05-07T03:53:22;21.30;41.30
62809;DHT22;48848;39.002;-94.584;2023-05-07T03:55:48;21.30;41.20
62809;DHT22;48848;39.002;-94.584;2023-05-07T03:58:18;21.20;41.10
62809;DHT22;48848;39.002;-94.584;2023-05-07T04:00:44;21.20;41.40
62809;DHT22;48848;39.002;-94.584;2023-05-07T04:03:10;21.20;41.50
62809;DHT22;48848;39.002;-94.584;2023-05-07T04:05:37;21.20;41.10
62809;DHT22;48848;39.002;-94.584;2023-05-07T04:08:03;21.10;41.30
62809;DHT22;48848;39.002;-94.584;2023-05-07T04:10:29;21.10;40.90
62809;DHT22;48848;39.002;-94.584;2023-05-07T04:12:55;21.10;41.10
62809;DHT22;48848;39.002;-94.584;2023-05-07T04:15:20;21.10;40.90
62809;DHT22;48848;39.002;-94.584;2023-05-07T04:17:46;21.10;41.30
62809;DHT22;48848;39.002;-94.584;2023-05-07T04:20:14;21.10;41.30
62809;DHT22;48848;39.002;-94.584;2023-05-07T04:22:40;21.00;41.20
62809;DHT22;48848;39.002;-94.584;2023-05-07T04:25:06;21.00;41.70
62809;DHT22;48848;39.002;-94.584;2023-05-07T04:27:33;21.00;41.00
62809;DHT22;48848;39.002;-94.584;2023-05-07T04:29:59;21.00;41.40
62809;DHT22;48848;39.002;-94.584;2023-05-07T04:32:26;21.00;41.40
62809;DHT22;48848;39.002;-94.584;2023-05-07T04:34:52;20.90;41.30
62809;DHT22;48848;39.002;-94.584;2023-05-07T04:37:18;21.00;43.40
62809;DHT22;48848;39.002;-94.584;2023-05-07T04:39:44;21.30;43.00
62809;DHT22;48848;39.002;-94.584;2023-05-07T04:42:13;21.50;42.50
62809;DHT22;48848;39.002;-94.584;2023-05-07T04:44:39;21.70;42.30
62809;DHT22;48848;39.002;-94.584;2023-05-07T04:47:05;21.90;42.50
62809;DHT22;48848;39.002;-94.584;2023-05-07T04:49:31;22.00;42.50
62809;DHT22;48848;39.002;-94.584;2023-05-07T04:51:57;22.10;42.50
62809;DHT22;48848;39.002;-94.584;2023-05-07T04:54:23;22.20;43.10
62809;DHT22;48848;39.002;-94.584;2023-05-07T04:56:50;22.30;43.10
62809;DHT22;48848;39.002;-94.584;2023-05-07T04:59:16;22.40;42.60
62809;DHT22;48848;39.002;-94.584;2023-05-07T05:01:42;22.10;41.70
62809;DHT22;48848;39.002;-94.584;2023-05-07T05:04:08;22.00;41.90
62809;DHT22;48848;39.002;-94.584;2023-05-07T05:06:33;21.80;41.70
62809;DHT22;48848;39.002;-94.584;2023-05-07T05:08:59;21.70;41.80
62809;DHT22;48848;39.002;-94.584;2023-05-07T05:11:25;21.60;41.90
62809;DHT22;48848;39.002;-94.584;2023-05-07T05:13:51;21.60;46.30
62809;DHT22;48848;39.002;-94.584;2023-05-07T05:16:17;21.60;48.40
62809;DHT22;48848;39.002;-94.584;2023-05-07T05:18:43;21.80;48.30
62809;DHT22;48848;39.002;-94.584;2023-05-07T05:21:08;22.00;47.10
62809;DHT22;48848;39.002;-94.584;2023-05-07T05:23:34;22.20;46.10
62809;DHT22;48848;39.002;-94.584;2023-05-07T05:26:00;22.30;45.60
62809;DHT22;48848;39.002;-94.584;2023-05-07T05:28:26;22.40;45.50
62809;DHT22;48848;39.002;-94.584;2023-05-07T05:30:53;22.40;45.40
62809;DHT22;48848;39.002;-94.584;2023-05-07T05:33:19;22.50;45.40
62809;DHT22;48848;39.002;-94.584;2023-05-07T05:35:45;22.50;45.60
62809;DHT22;48848;39.002;-94.584;2023-05-07T05:38:11;22.50;45.70
62809;DHT22;48848;39.002;-94.584;2023-05-07T05:40:37;22.70;45.10
62809;DHT22;48848;39.002;-94.584;2023-05-07T05:43:02;22.60;43.70
62809;DHT22;48848;39.002;-94.584;2023-05-07T05:45:29;22.30;42.00
62809;DHT22;48848;39.002;-94.584;2023-05-07T05:47:55;22.10;42.30
62809;DHT22;48848;39.002;-94.584;2023-05-07T05:50:21;22.00;42.40
62809;DHT22;48848;39.002;-94.584;2023-05-07T05:52:47;22.00;46.40
62809;DHT22;48848;39.002;-94.584;2023-05-07T05:55:13;22.00;48.50
62809;DHT22;48848;39.002;-94.584;2023-05-07T05:57:39;22.10;48.40
62809;DHT22;48848;39.002;-94.584;2023-05-07T06:00:06;22.30;47.20
62809;DHT22;48848;39.002;-94.584;2023-05-07T06:02:32;22.40;46.50
62809;DHT22;48848;39.002;-94.584;2023-05-07T06:04:57;22.40;46.30
62809;DHT22;48848;39.002;-94.584;2023-05-07T06:07:23;22.40;46.40
62809;DHT22;48848;39.002;-94.584;2023-05-07T06:09:49;22.40;46.30
62809;DHT22;48848;39.002;-94.584;2023-05-07T06:12:15;22.50;46.50
62809;DHT22;48848;39.002;-94.584;2023-05-07T06:14:42;22.60;46.30
62809;DHT22;48848;39.002;-94.584;2023-05-07T06:17:08;22.60;46.30
62809;DHT22;48848;39.002;-94.584;2023-05-07T06:19:34;22.70;46.40
62809;DHT22;48848;39.002;-94.584;2023-05-07T06:22:00;22.80;46.20
62809;DHT22;48848;39.002;-94.584;2023-05-07T06:24:27;22.90;45.90
62809;DHT22;48848;39.002;-94.584;2023-05-07T06:26:53;23.00;45.60
62809;DHT22;48848;39.002;-94.584;2023-05-07T06:29:19;23.00;42.50
62809;DHT22;48848;39.002;-94.584;2023-05-07T06:31:44;22.60;43.30
62809;DHT22;48848;39.002;-94.584;2023-05-07T06:34:10;22.40;42.60
62809;DHT22;48848;39.002;-94.584;2023-05-07T06:36:40;22.30;42.10
62809;DHT22;48848;39.002;-94.584;2023-05-07T06:39:06;22.20;41.70
62809;DHT22;48848;39.002;-94.584;2023-05-07T06:41:31;22.10;41.60
62809;DHT22;48848;39.002;-94.584;2023-05-07T06:43:57;22.00;42.00
62809;DHT22;48848;39.002;-94.584;2023-05-07T06:46:23;21.90;43.30
62809;DHT22;48848;39.002;-94.584;2023-05-07T06:48:49;21.90;48.50
62809;DHT22;48848;39.002;-94.584;2023-05-07T06:51:15;21.90;48.80
62809;DHT22;48848;39.002;-94.584;2023-05-07T06:53:41;22.20;47.80
62809;DHT22;48848;39.002;-94.584;2023-05-07T06:56:06;22.40;46.50
62809;DHT22;48848;39.002;-94.584;2023-05-07T06:58:32;22.50;46.00
62809;DHT22;48848;39.002;-94.584;2023-05-07T07:00:58;22.50;45.90
62809;DHT22;48848;39.002;-94.584;2023-05-07T07:03:24;22.50;46.00
62809;DHT22;48848;39.002;-94.584;2023-05-07T07:05:54;22.60;45.90
62809;DHT22;48848;39.002;-94.584;2023-05-07T07:08:21;22.70;46.00
62809;DHT22;48848;39.002;-94.584;2023-05-07T07:10:47;22.70;46.10
62809;DHT22;48848;39.002;-94.584;2023-05-07T07:13:13;22.70;45.90
62809;DHT22;48848;39.002;-94.584;2023-05-07T07:15:39;22.80;46.20
62809;DHT22;48848;39.002;-94.584;2023-05-07T07:18:05;22.90;46.00
62809;DHT22;48848;39.002;-94.584;2023-05-07T07:20:31;22.90;45.70
62809;DHT22;48848;39.002;-94.584;2023-05-07T07:22:57;23.00;45.60
62809;DHT22;48848;39.002;-94.584;2023-05-07T07:25:23;23.20;45.70
62809;DHT22;48848;39.002;-94.584;2023-05-07T07:27:49;23.20;45.20
62809;DHT22;48848;39.002;-94.584;2023-05-07T07:30:15;23.40;45.20
62809;DHT22;48848;39.002;-94.584;2023-05-07T07:32:41;23.40;45.20
62809;DHT22;48848;39.002;-94.584;2023-05-07T07:35:08;23.40;44.10
62809;DHT22;48848;39.002;-94.584;2023-05-07T07:37:34;23.10;41.90
62809;DHT22;48848;39.002;-94.584;2023-05-07T07:40:00;22.80;42.90
62809;DHT22;48848;39.002;-94.584;2023-05-07T07:42:25;22.60;41.70
62809;DHT22;48848;39.002;-94.584;2023-05-07T07:44:51;22.40;41.90
62809;DHT22;48848;39.002;-94.584;2023-05-07T07:47:17;22.30;41.60
62809;DHT22;48848;39.002;-94.584;2023-05-07T07:49:43;22.10;42.20
62809;DHT22;48848;39.002;-94.584;2023-05-07T07:52:09;22.00;45.50
62809;DHT22;48848;39.002;-94.584;2023-05-07T07:54:35;22.10;48.50
62809;DHT22;48848;39.002;-94.584;2023-05-07T07:57:01;22.20;48.80
62809;DHT22;48848;39.002;-94.584;2023-05-07T07:59:27;22.40;47.30
62809;DHT22;48848;39.002;-94.584;2023-05-07T08:01:53;22.60;46.40
62809;DHT22;48848;39.002;-94.584;2023-05-07T08:04:21;22.60;46.00
62809;DHT22;48848;39.002;-94.584;2023-05-07T08:06:47;22.70;45.70
62809;DHT22;48848;39.002;-94.584;2023-05-07T08:09:12;22.80;45.50
62809;DHT22;48848;39.002;-94.584;2023-05-07T08:11:38;22.90;45.40
62809;DHT22;48848;39.002;-94.584;2023-05-07T08:14:04;23.00;45.20
62809;DHT22;48848;39.002;-94.584;2023-05-07T08:16:30;23.00;45.20
62809;DHT22;48848;39.002;-94.584;2023-05-07T08:18:56;23.10;45.20
62809;DHT22;48848;39.002;-94.584;2023-05-07T08:21:22;23.10;45.20
62809;DHT22;48848;39.002;-94.584;2023-05-07T08:23:48;23.20;45.10
62809;DHT22;48848;39.002;-94.584;2023-05-07T08:26:14;23.20;45.30
62809;DHT22;48848;39.002;-94.584;2023-05-07T08:28:40;23.30;45.20
62809;DHT22;48848;39.002;-94.584;2023-05-07T08:31:06;23.50;45.20
62809;DHT22;48848;39.002;-94.584;2023-05-07T08:33:32;23.50;45.00
62809;DHT22;48848;39.002;-94.584;2023-05-07T08:35:58;23.60;45.00
62809;DHT22;48848;39.002;-94.584;2023-05-07T08:38:23;23.70;45.00
62809;DHT22;48848;39.002;-94.584;2023-05-07T08:40:49;23.70;44.90
62809;DHT22;48848;39.002;-94.584;2023-05-07T08:43:15;23.70;44.80
62809;DHT22;48848;39.002;-94.584;2023-05-07T08:45:42;23.70;44.80
62809;DHT22;48848;39.002;-94.584;2023-05-07T08:48:16;23.70;44.70
62809;DHT22;48848;39.002;-94.584;2023-05-07T08:50:42;23.50;42.10
62809;DHT22;48848;39.002;-94.584;2023-05-07T08:53:08;23.10;41.70
62809;DHT22;48848;39.002;-94.584;2023-05-07T08:55:34;22.80;41.30
62809;DHT22;48848;39.002;-94.584;2023-05-07T08:58:00;22.60;41.90
62809;DHT22;48848;39.002;-94.584;2023-05-07T09:00:26;22.40;42.30
62809;DHT22;48848;39.002;-94.584;2023-05-07T09:02:53;22.30;41.40
62809;DHT22;48848;39.002;-94.584;2023-05-07T09:05:19;22.10;41.10
62809;DHT22;48848;39.002;-94.584;2023-05-07T09:07:45;22.00;44.80
62809;DHT22;48848;39.002;-94.584;2023-05-07T09:10:11;22.10;49.20
62809;DHT22;48848;39.002;-94.584;2023-05-07T09:12:37;22.20;47.80
62809;DHT22;48848;39.002;-94.584;2023-05-07T09:15:04;22.50;46.50
62809;DHT22;48848;39.002;-94.584;2023-05-07T09:17:31;22.60;45.50
62809;DHT22;48848;39.002;-94.584;2023-05-07T09:20:01;22.80;44.90
62809;DHT22;48848;39.002;-94.584;2023-05-07T09:22:29;22.90;44.70
62809;DHT22;48848;39.002;-94.584;2023-05-07T09:24:56;23.00;44.60
62809;DHT22;48848;39.002;-94.584;2023-05-07T09:27:22;23.00;44.40
62809;DHT22;48848;39.002;-94.584;2023-05-07T09:29:48;23.10;44.50
62809;DHT22;48848;39.002;-94.584;2023-05-07T09:32:14;23.20;44.40
62809;DHT22;48848;39.002;-94.584;2023-05-07T09:34:41;23.20;44.40
62809;DHT22;48848;39.002;-94.584;2023-05-07T09:37:07;23.20;44.20
62809;DHT22;48848;39.002;-94.584;2023-05-07T09:39:40;23.40;44.20
62809;DHT22;48848;39.002;-94.584;2023-05-07T09:42:06;23.40;44.30
62809;DHT22;48848;39.002;-94.584;2023-05-07T09:44:32;23.40;44.30
62809;DHT22;48848;39.002;-94.584;2023-05-07T09:46:59;23.50;44.40
62809;DHT22;48848;39.002;-94.584;2023-05-07T09:49:25;23.50;44.40
62809;DHT22;48848;39.002;-94.584;2023-05-07T09:51:55;23.50;44.40
62809;DHT22;48848;39.002;-94.584;2023-05-07T09:54:22;23.50;44.30
62809;DHT22;48848;39.002;-94.584;2023-05-07T09:56:48;23.60;44.40
62809;DHT22;48848;39.002;-94.584;2023-05-07T09:59:15;23.50;44.40
62809;DHT22;48848;39.002;-94.584;2023-05-07T10:01:42;23.50;44.40
62809;DHT22;48848;39.002;-94.584;2023-05-07T10:04:08;23.60;44.50
62809;DHT22;48848;39.002;-94.584;2023-05-07T10:06:35;23.60;44.70
62809;DHT22;48848;39.002;-94.584;2023-05-07T10:09:01;23.60;44.80
62809;DHT22;48848;39.002;-94.584;2023-05-07T10:11:27;23.60;45.00
62809;DHT22;48848;39.002;-94.584;2023-05-07T10:13:53;23.60;44.90
62809;DHT22;48848;39.002;-94.584;2023-05-07T10:16:20;23.70;44.90
62809;DHT22;48848;39.002;-94.584;2023-05-07T10:18:46;23.70;44.90
62809;DHT22;48848;39.002;-94.584;2023-05-07T10:23:39;23.70;44.90
62809;DHT22;48848;39.002;-94.584;2023-05-07T10:26:06;23.70;44.80
62809;DHT22;48848;39.002;-94.584;2023-05-07T10:28:37;23.80;44.90
62809;DHT22;48848;39.002;-94.584;2023-05-07T10:33:45;23.70;41.90
62809;DHT22;48848;39.002;-94.584;2023-05-07T10:36:12;23.30;42.30
62809;DHT22;48848;39.002;-94.584;2023-05-07T10:38:38;23.00;41.30
62809;DHT22;48848;39.002;-94.584;2023-05-07T10:41:06;22.80;41.50
62809;DHT22;48848;39.002;-94.584;2023-05-07T10:43:41;22.60;41.10
62809;DHT22;48848;39.002;-94.584;2023-05-07T10:46:14;22.50;40.90
62809;DHT22;48848;39.002;-94.584;2023-05-07T10:51:24;22.20;41.50
62809;DHT22;48848;39.002;-94.584;2023-05-07T10:54:35;22.10;45.50
62809;DHT22;48848;39.002;-94.584;2023-05-07T10:56:45;22.40;44.50
62809;DHT22;48848;39.002;-94.584;2023-05-07T11:01:57;22.90;43.30
62809;DHT22;48848;39.002;-94.584;2023-05-07T11:04:24;23.00;43.30
62809;DHT22;48848;39.002;-94.584;2023-05-07T11:09:56;23.20;43.20
62809;DHT22;48848;39.002;-94.584;2023-05-07T11:15:04;23.30;43.30
62809;DHT22;48848;39.002;-94.584;2023-05-07T11:17:31;23.40;43.40
62809;DHT22;48848;39.002;-94.584;2023-05-07T11:19:57;23.40;43.50
62809;DHT22;48848;39.002;-94.584;2023-05-07T11:25:07;23.50;43.60
62809;DHT22;48848;39.002;-94.584;2023-05-07T11:27:33;23.50;43.60
62809;DHT22;48848;39.002;-94.584;2023-05-07T11:29:59;23.50;43.90
62809;DHT22;48848;39.002;-94.584;2023-05-07T11:32:30;23.50;43.80
62809;DHT22;48848;39.002;-94.584;2023-05-07T11:34:58;23.60;43.90
62809;DHT22;48848;39.002;-94.584;2023-05-07T11:37:25;23.50;43.90
62809;DHT22;48848;39.002;-94.584;2023-05-07T11:40:01;23.60;44.20
62809;DHT22;48848;39.002;-94.584;2023-05-07T11:42:28;23.60;44.50
62809;DHT22;48848;39.002;-94.584;2023-05-07T11:44:54;23.60;44.50
62809;DHT22;48848;39.002;-94.584;2023-05-07T11:47:20;23.60;44.30
62809;DHT22;48848;39.002;-94.584;2023-05-07T11:49:49;23.60;44.20
62809;DHT22;48848;39.002;-94.584;2023-05-07T11:52:16;23.70;44.40
62809;DHT22;48848;39.002;-94.584;2023-05-07T11:54:48;23.70;44.40
62809;DHT22;48848;39.002;-94.584;2023-05-07T11:57:14;23.70;44.50
62809;DHT22;48848;39.002;-94.584;2023-05-07T11:59:40;23.70;44.40
62809;DHT22;48848;39.002;-94.584;2023-05-07T12:02:07;23.70;44.30
62809;DHT22;48848;39.002;-94.584;2023-05-07T12:04:33;23.80;44.40
62809;DHT22;48848;39.002;-94.584;2023-05-07T12:06:59;23.80;44.30
62809;DHT22;48848;39.002;-94.584;2023-05-07T12:09:25;23.80;44.30
62809;DHT22;48848;39.002;-94.584;2023-05-07T12:11:51;23.80;44.20
62809;DHT22;48848;39.002;-94.584;2023-05-07T12:14:17;23.80;44.30
62809;DHT22;48848;39.002;-94.584;2023-05-07T12:16:43;23.90;44.30
62809;DHT22;48848;39.002;-94.584;2023-05-07T12:19:10;23.90;44.20
62809;DHT22;48848;39.002;-94.584;2023-05-07T12:21:38;23.90;44.30
62809;DHT22;48848;39.002;-94.584;2023-05-07T12:24:04;23.70;42.10
62809;DHT22;48848;39.002;-94.584;2023-05-07T12:26:30;23.30;41.10
62809;DHT22;48848;39.002;-94.584;2023-05-07T12:28:59;23.10;41.10
62809;DHT22;48848;39.002;-94.584;2023-05-07T12:31:25;22.80;41.70
62809;DHT22;48848;39.002;-94.584;2023-05-07T12:33:52;22.60;41.20
62809;DHT22;48848;39.002;-94.584;2023-05-07T12:36:18;22.40;40.90
62809;DHT22;48848;39.002;-94.584;2023-05-07T12:38:44;22.20;43.20
62809;DHT22;48848;39.002;-94.584;2023-05-07T12:41:10;22.30;44.30
62809;DHT22;48848;39.002;-94.584;2023-05-07T12:43:37;22.70;43.80
62809;DHT22;48848;39.002;-94.584;2023-05-07T12:46:05;22.90;43.50
62809;DHT22;48848;39.002;-94.584;2023-05-07T12:48:31;23.00;43.30
62809;DHT22;48848;39.002;-94.584;2023-05-07T12:50:58;23.20;43.50
62809;DHT22;48848;39.002;-94.584;2023-05-07T12:53:25;23.30;43.10
62809;DHT22;48848;39.002;-94.584;2023-05-07T12:55:52;23.40;43.10
62809;DHT22;48848;39.002;-94.584;2023-05-07T12:58:24;23.40;43.40
62809;DHT22;48848;39.002;-94.584;2023-05-07T13:00:50;23.40;43.40
62809;DHT22;48848;39.002;-94.584;2023-05-07T13:03:29;23.40;43.50
62809;DHT22;48848;39.002;-94.584;2023-05-07T13:05:57;23.50;43.70
62809;DHT22;48848;39.002;-94.584;2023-05-07T13:08:33;23.60;43.60
62809;DHT22;48848;39.002;-94.584;2023-05-07T13:11:00;23.60;43.50
62809;DHT22;48848;39.002;-94.584;2023-05-07T13:13:32;23.60;43.60
62809;DHT22;48848;39.002;-94.584;2023-05-07T13:15:58;23.70;43.70
62809;DHT22;48848;39.002;-94.584;2023-05-07T13:18:24;23.70;43.90
62809;DHT22;48848;39.002;-94.584;2023-05-07T13:20:50;23.70;44.50
62809;DHT22;48848;39.002;-94.584;2023-05-07T13:23:17;23.70;44.60
62809;DHT22;48848;39.002;-94.584;2023-05-07T13:25:43;23.70;44.40
62809;DHT22;48848;39.002;-94.584;2023-05-07T13:28:08;23.70;44.90
62809;DHT22;48848;39.002;-94.584;2023-05-07T13:30:34;23.80;44.70
62809;DHT22;48848;39.002;-94.584;2023-05-07T13:33:00;23.80;44.60
62809;DHT22;48848;39.002;-94.584;2023-05-07T13:35:26;23.80;44.60
62809;DHT22;48848;39.002;-94.584;2023-05-07T13:37:52;23.80;44.70
62809;DHT22;48848;39.002;-94.584;2023-05-07T13:40:20;23.80;44.70
62809;DHT22;48848;39.002;-94.584;2023-05-07T13:42:47;23.90;44.60
62809;DHT22;48848;39.002;-94.584;2023-05-07T13:45:13;23.90;44.80
62809;DHT22;48848;39.002;-94.584;2023-05-07T13:47:42;23.80;45.10
62809;DHT22;48848;39.002;-94.584;2023-05-07T13:50:08;23.90;45.00
62809;DHT22;48848;39.002;-94.584;2023-05-07T13:52:34;24.00;45.00
62809;DHT22;48848;39.002;-94.584;2023-05-07T13:55:00;23.90;45.10
62809;DHT22;48848;39.002;-94.584;2023-05-07T13:57:26;23.90;45.20
62809;DHT22;48848;39.002;-94.584;2023-05-07T13:59:52;23.70;45.80
62809;DHT22;48848;39.002;-94.584;2023-05-07T14:02:18;23.90;45.40
62809;DHT22;48848;39.002;-94.584;2023-05-07T14:04:44;24.00;45.30
62809;DHT22;48848;39.002;-94.584;2023-05-07T14:07:10;24.10;45.40
62809;DHT22;48848;39.002;-94.584;2023-05-07T14:09:36;24.10;45.40
62809;DHT22;48848;39.002;-94.584;2023-05-07T14:12:02;24.10;45.70
62809;DHT22;48848;39.002;-94.584;2023-05-07T14:14:28;24.20;45.80
62809;DHT22;48848;39.002;-94.584;2023-05-07T14:16:54;24.20;45.60
62809;DHT22;48848;39.002;-94.584;2023-05-07T14:19:19;24.20;45.60
62809;DHT22;48848;39.002;-94.584;2023-05-07T14:21:48;24.20;45.50
62809;DHT22;48848;39.002;-94.584;2023-05-07T14:24:14;24.20;45.60
62809;DHT22;48848;39.002;-94.584;2023-05-07T14:26:40;24.30;45.40
62809;DHT22;48848;39.002;-94.584;2023-05-07T14:29:06;24.30;45.60
62809;DHT22;48848;39.002;-94.584;2023-05-07T14:31:31;24.30;45.60
62809;DHT22;48848;39.002;-94.584;2023-05-07T14:33:58;24.30;45.60
62809;DHT22;48848;39.002;-94.584;2023-05-07T14:36:24;24.30;46.00
62809;DHT22;48848;39.002;-94.584;2023-05-07T14:38:55;24.10;46.00
62809;DHT22;48848;39.002;-94.584;2023-05-07T14:41:22;24.10;46.30
62809;DHT22;48848;39.002;-94.584;2023-05-07T14:43:48;24.30;45.90
62809;DHT22;48848;39.002;-94.584;2023-05-07T14:46:16;24.40;45.90
62809;DHT22;48848;39.002;-94.584;2023-05-07T14:48:43;24.40;46.20
62809;DHT22;48848;39.002;-94.584;2023-05-07T14:51:08;24.40;46.20
62809;DHT22;48848;39.002;-94.584;2023-05-07T14:53:35;24.50;46.40
62809;DHT22;48848;39.002;-94.584;2023-05-07T14:56:01;24.50;46.60
62809;DHT22;48848;39.002;-94.584;2023-05-07T14:58:26;24.60;46.50
62809;DHT22;48848;39.002;-94.584;2023-05-07T15:00:52;24.60;46.50
62809;DHT22;48848;39.002;-94.584;2023-05-07T15:03:18;24.60;46.50
62809;DHT22;48848;39.002;-94.584;2023-05-07T15:05:44;24.60;46.40
62809;DHT22;48848;39.002;-94.584;2023-05-07T15:08:10;24.50;46.30
62809;DHT22;48848;39.002;-94.584;2023-05-07T15:10:36;24.50;46.40
62809;DHT22;48848;39.002;-94.584;2023-05-07T15:13:07;24.50;46.20
62809;DHT22;48848;39.002;-94.584;2023-05-07T15:15:33;24.40;46.70
62809;DHT22;48848;39.002;-94.584;2023-05-07T15:17:59;24.50;46.50